createdAt,value
2023-03-12T00:01:14.846Z,5.97
2023-03-12T00:03:42.169Z,5.90
2023-03-12T00:06:10.994Z,7.13
2023-03-12T00:08:38.938Z,6.13
2023-03-12T00:11:07.789Z,5.97
2023-03-12T00:13:34.958Z,5.03
2023-03-12T00:16:07.417Z,5.22
2023-03-12T00:18:34.922Z,4.40
2023-03-12T00:21:01.888Z,5.45
2023-03-12T00:23:29.127Z,5.40
2023-03-12T00:26:01.250Z,6.28
2023-03-12T00:28:28.554Z,5.95
2023-03-12T00:30:57.177Z,6.83
2023-03-12T00:33:25.964Z,5.60
2023-03-12T00:35:53.668Z,5.45
2023-03-12T00:38:20.877Z,5.78
2023-03-12T00:40:48.636Z,4.75
2023-03-12T00:43:15.956Z,4.13
2023-03-12T00:45:42.867Z,4.75
2023-03-12T00:48:09.956Z,4.82
2023-03-12T00:50:36.840Z,6.40
2023-03-12T00:53:04.054Z,5.95
2023-03-12T00:55:30.925Z,6.30
2023-03-12T00:57:58.118Z,5.13
2023-03-12T01:00:25.114Z,4.93
2023-03-12T01:02:52.356Z,5.47
2023-03-12T01:05:19.369Z,5.32
2023-03-12T01:07:47.529Z,4.43
2023-03-12T01:10:16.422Z,4.20
2023-03-12T01:12:46.933Z,4.82
2023-03-12T01:15:16.352Z,5.18
2023-03-12T01:17:43.529Z,7.00
2023-03-12T01:20:11.303Z,5.60
2023-03-12T01:22:38.875Z,5.35
2023-03-12T01:25:06.969Z,5.10
2023-03-12T01:27:34.058Z,4.80
2023-03-12T01:30:00.889Z,4.53
2023-03-12T01:32:28.107Z,4.40
2023-03-12T01:34:55.068Z,5.07
2023-03-12T01:37:22.184Z,4.57
2023-03-12T01:39:48.928Z,5.13
2023-03-12T01:42:16.134Z,5.13
2023-03-12T01:44:55.687Z,5.00
2023-03-12T01:47:23.348Z,4.88
2023-03-12T01:49:52.475Z,4.57
2023-03-12T01:52:25.539Z,5.78
2023-03-12T01:55:06.179Z,5.07
2023-03-12T01:57:41.959Z,4.97
2023-03-12T02:00:21.134Z,6.38
2023-03-12T02:02:51.058Z,7.35
2023-03-12T02:05:28.925Z,7.43
2023-03-12T02:07:57.327Z,7.35
2023-03-12T02:10:25.205Z,7.27
2023-03-12T02:12:53.252Z,6.68
2023-03-12T02:15:20.426Z,7.60
2023-03-12T02:17:47.518Z,6.03
2023-03-12T02:20:18.598Z,6.68
2023-03-12T02:22:56.039Z,5.87
2023-03-12T02:25:39.331Z,6.25
2023-03-12T02:28:14.193Z,5.82
2023-03-12T02:30:45.028Z,5.55
2023-03-12T02:33:15.155Z,5.60
2023-03-12T02:35:43.131Z,5.90
2023-03-12T02:38:40.287Z,5.78
2023-03-12T02:41:21.751Z,5.95
2023-03-12T02:44:11.302Z,6.00
2023-03-12T02:46:42.323Z,5.90
2023-03-12T02:49:13.495Z,5.40
2023-03-12T02:51:42.102Z,5.70
2023-03-12T02:54:09.806Z,5.53
2023-03-12T02:56:36.969Z,6.00
2023-03-12T02:59:04.633Z,6.15
2023-03-12T03:01:34.652Z,5.97
2023-03-12T03:04:04.096Z,6.15
2023-03-12T03:06:31.407Z,5.45
2023-03-12T03:08:59.299Z,5.13
2023-03-12T03:11:26.835Z,5.53
2023-03-12T03:13:56.191Z,4.87
2023-03-12T03:16:24.618Z,6.93
2023-03-12T03:18:52.220Z,6.25
2023-03-12T03:21:19.160Z,6.68
2023-03-12T03:23:48.690Z,6.78
2023-03-12T03:26:18.544Z,5.80
2023-03-12T03:28:45.833Z,6.20
2023-03-12T03:31:13.866Z,8.13
2023-03-12T03:33:42.385Z,9.02
2023-03-12T03:36:14.098Z,7.05
2023-03-12T03:38:49.506Z,6.87
2023-03-12T03:41:19.104Z,5.75
2023-03-12T03:43:47.438Z,6.07
2023-03-12T03:46:16.363Z,6.00
2023-03-12T03:48:47.841Z,5.75
2023-03-12T03:51:15.772Z,6.13
2023-03-12T03:53:46.306Z,6.35
2023-03-12T03:56:15.609Z,5.68
2023-03-12T03:58:47.504Z,6.50
2023-03-12T04:01:16.127Z,6.63
2023-03-12T04:03:45.534Z,6.60
2023-03-12T04:06:12.560Z,6.70
2023-03-12T04:08:40.673Z,5.85
2023-03-12T04:11:16.924Z,6.35
2023-03-12T04:13:45.348Z,5.97
2023-03-12T04:16:14.283Z,6.67
2023-03-12T04:18:42.191Z,8.95
2023-03-12T04:21:10.732Z,7.35
2023-03-12T04:23:38.610Z,8.23
2023-03-12T04:26:07.200Z,8.95
2023-03-12T04:28:36.205Z,8.17
2023-03-12T04:31:07.060Z,8.02
2023-03-12T04:33:44.902Z,9.18
2023-03-12T04:36:13.611Z,11.13
2023-03-12T04:38:43.621Z,13.45
2023-03-12T04:41:14.049Z,11.90
2023-03-12T04:43:47.576Z,10.10
2023-03-12T04:46:15.615Z,8.02
2023-03-12T04:48:44.180Z,8.68
2023-03-12T04:51:11.962Z,8.68
2023-03-12T04:53:40.646Z,8.07
2023-03-12T04:56:09.440Z,7.28
2023-03-12T04:58:37.686Z,8.40
2023-03-12T05:01:05.823Z,7.25
2023-03-12T05:03:33.293Z,6.85
2023-03-12T05:06:00.703Z,7.50
2023-03-12T05:08:27.877Z,6.93
2023-03-12T05:10:54.773Z,6.10
2023-03-12T05:13:22.790Z,6.82
2023-03-12T05:15:53.126Z,5.68
2023-03-12T05:18:21.655Z,7.27
2023-03-12T05:21:05.502Z,9.80
2023-03-12T05:23:33.574Z,8.43
2023-03-12T05:26:00.598Z,8.05
2023-03-12T05:28:29.092Z,7.63
2023-03-12T05:31:01.089Z,6.80
2023-03-12T05:33:30.184Z,7.07
2023-03-12T05:35:59.165Z,6.57
2023-03-12T05:38:26.723Z,6.03
2023-03-12T05:40:55.462Z,6.03
2023-03-12T05:43:23.530Z,6.30
2023-03-12T05:45:51.656Z,9.00
2023-03-12T05:48:20.256Z,7.35
2023-03-12T05:50:48.984Z,6.85
2023-03-12T05:53:16.353Z,7.55
2023-03-12T05:55:43.975Z,7.67
2023-03-12T05:58:11.173Z,5.90
2023-03-12T06:00:44.453Z,7.00
2023-03-12T06:03:14.466Z,7.30
2023-03-12T06:05:44.374Z,6.95
2023-03-12T06:08:11.573Z,6.73
2023-03-12T06:10:39.332Z,6.97
2023-03-12T06:13:07.525Z,6.72
2023-03-12T06:15:34.663Z,7.28
2023-03-12T06:18:03.901Z,8.23
2023-03-12T06:20:32.083Z,8.97
2023-03-12T06:22:59.290Z,8.30
2023-03-12T06:25:26.141Z,10.20
2023-03-12T06:27:53.280Z,8.43
2023-03-12T06:30:20.408Z,11.48
2023-03-12T06:32:47.527Z,9.43
2023-03-12T06:35:14.401Z,8.77
2023-03-12T06:37:41.690Z,9.57
2023-03-12T06:40:11.045Z,8.15
2023-03-12T06:42:38.199Z,10.07
2023-03-12T06:45:06.172Z,10.30
2023-03-12T06:47:33.266Z,9.02
2023-03-12T06:50:00.227Z,9.35
2023-03-12T06:52:27.445Z,11.15
2023-03-12T06:54:54.208Z,9.25
2023-03-12T06:57:21.507Z,10.47
2023-03-12T06:59:50.570Z,9.25
2023-03-12T07:02:18.020Z,9.63
2023-03-12T07:04:44.919Z,10.32
2023-03-12T07:07:12.157Z,13.20
2023-03-12T07:09:39.019Z,9.77
2023-03-12T07:12:06.363Z,11.32
2023-03-12T07:14:33.230Z,11.45
2023-03-12T07:17:02.058Z,11.25
2023-03-12T07:19:30.410Z,11.10
2023-03-12T07:21:57.562Z,8.50
2023-03-12T07:24:24.291Z,8.75
2023-03-12T07:26:51.419Z,8.60
2023-03-12T07:29:18.241Z,10.48
2023-03-12T07:31:45.403Z,9.40
2023-03-12T07:34:12.463Z,11.20
2023-03-12T07:36:39.865Z,9.68
2023-03-12T07:39:06.659Z,10.55
2023-03-12T07:41:35.388Z,11.10
2023-03-12T07:44:02.258Z,14.77
2023-03-12T07:46:29.510Z,9.50
2023-03-12T07:48:56.336Z,11.15
2023-03-12T07:51:23.487Z,11.82
2023-03-12T07:53:50.487Z,9.20
2023-03-12T07:56:17.776Z,10.10
2023-03-12T07:58:44.752Z,10.57
2023-03-12T08:01:12.002Z,10.10
2023-03-12T08:03:39.214Z,11.60
2023-03-12T08:06:07.534Z,10.20
2023-03-12T08:08:34.833Z,11.63
2023-03-12T08:11:04.624Z,9.47
2023-03-12T08:13:31.626Z,9.95
2023-03-12T08:15:58.918Z,9.55
2023-03-12T08:18:26.561Z,9.35
2023-03-12T08:20:54.635Z,9.90
2023-03-12T08:23:22.149Z,11.60
2023-03-12T08:25:50.382Z,13.35
2023-03-12T08:28:17.922Z,12.38
2023-03-12T08:31:02.891Z,18.42
2023-03-12T08:33:29.768Z,13.85
2023-03-12T08:35:56.983Z,12.57
2023-03-12T08:38:23.891Z,11.60
2023-03-12T08:41:00.951Z,18.02
2023-03-12T08:43:29.419Z,21.67
2023-03-12T08:46:01.788Z,32.75
2023-03-12T08:48:30.056Z,21.40
2023-03-12T08:50:58.872Z,26.42
2023-03-12T08:53:26.913Z,18.40
2023-03-12T08:55:54.728Z,20.02
2023-03-12T08:58:22.578Z,15.05
2023-03-12T09:00:49.679Z,14.67
2023-03-12T09:03:16.707Z,11.57
2023-03-12T09:05:44.813Z,12.15
2023-03-12T09:08:12.226Z,20.50
2023-03-12T09:10:39.557Z,21.55
2023-03-12T09:13:07.105Z,14.47
2023-03-12T09:15:34.187Z,10.60
2023-03-12T09:18:00.974Z,11.52
2023-03-12T09:20:28.073Z,11.05
2023-03-12T09:22:54.820Z,9.82
2023-03-12T09:25:23.436Z,8.70
2023-03-12T09:27:50.435Z,9.07
2023-03-12T09:30:20.910Z,12.50
2023-03-12T09:32:48.221Z,12.38
2023-03-12T09:35:16.084Z,9.52
2023-03-12T09:37:43.244Z,10.57
2023-03-12T09:40:17.472Z,15.45
2023-03-12T09:42:50.061Z,11.13
2023-03-12T09:45:26.436Z,9.88
2023-03-12T09:47:58.620Z,9.02
2023-03-12T09:50:28.350Z,11.03
2023-03-12T09:53:13.695Z,10.05
2023-03-12T09:55:46.565Z,9.00
2023-03-12T09:58:35.057Z,8.32
2023-03-12T10:01:12.066Z,7.47
2023-03-12T10:04:00.233Z,12.47
2023-03-12T10:06:35.753Z,10.00
2023-03-12T10:09:21.498Z,8.40
2023-03-12T10:12:10.734Z,8.02
2023-03-12T10:14:51.160Z,8.38
2023-03-12T10:17:38.259Z,8.07
2023-03-12T10:20:32.723Z,8.30
2023-03-12T10:23:17.474Z,7.30
2023-03-12T10:25:51.130Z,6.03
2023-03-12T10:28:29.686Z,6.32
2023-03-12T10:31:01.241Z,5.67
2023-03-12T10:33:51.390Z,8.30
2023-03-12T10:36:22.565Z,8.80
2023-03-12T10:38:49.720Z,7.30
2023-03-12T10:41:22.930Z,7.15
2023-03-12T10:43:50.177Z,6.33
2023-03-12T10:46:34.374Z,6.53
2023-03-12T10:49:23.708Z,9.15
2023-03-12T10:52:05.234Z,13.05
2023-03-12T10:54:35.845Z,35.53
2023-03-12T10:57:03.428Z,13.17
2023-03-12T10:59:39.154Z,8.30
2023-03-12T11:02:28.983Z,9.05
2023-03-12T11:04:56.687Z,13.27
2023-03-12T11:07:35.498Z,9.70
2023-03-12T11:10:08.477Z,11.87
2023-03-12T11:12:37.776Z,23.08
2023-03-12T11:15:40.613Z,12.43
2023-03-12T11:18:20.451Z,5.75
2023-03-12T11:20:50.366Z,6.30
2023-03-12T11:23:31.282Z,6.60
2023-03-12T11:26:02.290Z,5.88
2023-03-12T11:28:38.013Z,7.85
2023-03-12T11:31:11.076Z,13.57
2023-03-12T11:33:38.006Z,16.48
2023-03-12T11:36:19.862Z,13.73
2023-03-12T11:39:17.888Z,15.65
2023-03-12T11:42:08.183Z,11.60
2023-03-12T11:44:47.920Z,7.95
2023-03-12T11:47:58.474Z,5.57
2023-03-12T11:50:44.499Z,4.47
2023-03-12T11:53:24.278Z,6.05
2023-03-12T11:56:13.616Z,6.60
2023-03-12T11:59:18.018Z,4.22
2023-03-12T12:02:10.306Z,4.50
2023-03-12T12:05:04.949Z,6.53
2023-03-12T12:07:59.678Z,5.72
2023-03-12T12:11:03.930Z,4.22
2023-03-12T12:13:39.024Z,4.28
2023-03-12T12:16:35.728Z,3.55
2023-03-12T12:19:24.633Z,6.13
2023-03-12T12:21:51.741Z,3.65
2023-03-12T12:24:31.033Z,6.95
2023-03-12T12:27:01.226Z,7.82
2023-03-12T12:30:02.032Z,4.95
2023-03-12T12:32:56.049Z,3.20
2023-03-12T12:35:35.182Z,3.10
2023-03-12T12:38:13.554Z,4.78
2023-03-12T12:40:49.086Z,4.10
2023-03-12T12:43:30.360Z,10.40
2023-03-12T12:46:02.334Z,7.17
2023-03-12T12:48:38.240Z,21.38
2023-03-12T12:51:08.928Z,9.20
2023-03-12T12:53:41.770Z,17.60
2023-03-12T12:56:15.630Z,7.72
2023-03-12T12:58:51.950Z,9.77
2023-03-12T13:01:19.298Z,8.73
2023-03-12T13:03:47.816Z,6.93
2023-03-12T13:06:14.814Z,4.65
2023-03-12T13:08:44.788Z,2.55
2023-03-12T13:11:19.404Z,2.50
2023-03-12T13:14:12.010Z,1.92
2023-03-12T13:16:42.634Z,2.00
2023-03-12T13:19:18.732Z,6.47
2023-03-12T13:21:51.394Z,7.70
2023-03-12T13:24:26.252Z,2.20
2023-03-12T13:27:02.525Z,7.78
2023-03-12T13:29:29.670Z,9.20
2023-03-12T13:31:57.173Z,4.70
2023-03-12T13:34:26.901Z,2.40
2023-03-12T13:36:59.817Z,2.03
2023-03-12T13:39:36.500Z,2.38
2023-03-12T13:42:38.188Z,1.85
2023-03-12T13:45:23.157Z,1.73
2023-03-12T13:47:55.484Z,1.90
2023-03-12T13:50:22.733Z,2.30
2023-03-12T13:53:06.849Z,1.95
2023-03-12T13:55:36.914Z,1.88
2023-03-12T13:58:15.944Z,2.05
2023-03-12T14:00:56.952Z,1.60
2023-03-12T14:03:33.743Z,1.40
2023-03-12T14:06:14.668Z,1.80
2023-03-12T14:08:53.882Z,2.42
2023-03-12T14:11:50.734Z,2.97
2023-03-12T14:14:49.040Z,1.80
2023-03-12T14:17:27.490Z,7.10
2023-03-12T14:20:10.641Z,5.78
2023-03-12T14:22:41.487Z,4.57
2023-03-12T14:25:35.520Z,2.90
2023-03-12T14:28:10.942Z,2.50
2023-03-12T14:31:00.303Z,2.10
2023-03-12T14:33:33.436Z,2.17
2023-03-12T14:36:17.019Z,2.33
2023-03-12T14:38:46.172Z,3.58
2023-03-12T14:41:18.782Z,3.95
2023-03-12T14:43:46.565Z,3.03
2023-03-12T14:46:22.571Z,3.20
2023-03-12T14:48:57.285Z,4.68
2023-03-12T14:51:30.466Z,5.35
2023-03-12T14:54:02.677Z,4.13
2023-03-12T14:56:33.402Z,3.30
2023-03-12T14:59:19.356Z,4.70
2023-03-12T15:01:46.847Z,5.63
2023-03-12T15:04:20.010Z,2.97
2023-03-12T15:06:57.059Z,4.60
2023-03-12T15:09:29.306Z,2.33
2023-03-12T15:11:58.633Z,3.20
2023-03-12T15:14:28.736Z,4.70
2023-03-12T15:17:00.056Z,3.03
2023-03-12T15:19:32.739Z,3.88
2023-03-12T15:22:00.560Z,2.37
2023-03-12T15:24:30.541Z,2.50
2023-03-12T15:26:57.401Z,2.58
2023-03-12T15:29:30.376Z,2.03
2023-03-12T15:31:59.667Z,2.20
2023-03-12T15:34:38.549Z,1.97
2023-03-12T15:37:29.728Z,1.67
2023-03-12T15:39:57.423Z,2.13
2023-03-12T15:42:26.606Z,2.83
2023-03-12T15:44:56.954Z,2.38
2023-03-12T15:47:29.732Z,1.80
2023-03-12T15:50:01.262Z,1.60
2023-03-12T15:52:33.746Z,1.42
2023-03-12T15:55:12.908Z,1.60
2023-03-12T15:57:46.898Z,1.67
2023-03-12T16:00:41.218Z,1.90
2023-03-12T16:03:17.125Z,2.50
2023-03-12T16:05:44.720Z,2.28
2023-03-12T16:08:22.779Z,2.65
2023-03-12T16:10:50.694Z,1.88
2023-03-12T16:13:23.793Z,2.63
2023-03-12T16:15:52.076Z,2.72
2023-03-12T16:18:20.814Z,2.80
2023-03-12T16:20:49.618Z,2.13
2023-03-12T16:23:19.009Z,2.42
2023-03-12T16:25:50.297Z,2.20
2023-03-12T16:28:19.181Z,2.50
2023-03-12T16:30:46.845Z,2.70
2023-03-12T16:33:16.620Z,4.18
2023-03-12T16:35:44.100Z,4.95
2023-03-12T16:38:10.912Z,4.97
2023-03-12T16:40:40.644Z,8.82
2023-03-12T16:43:13.012Z,5.95
2023-03-12T16:45:44.734Z,7.50
2023-03-12T16:48:15.576Z,5.78
2023-03-12T16:50:48.251Z,4.97
2023-03-12T16:53:15.389Z,2.95
2023-03-12T16:55:57.664Z,2.20
2023-03-12T16:58:25.738Z,2.42
2023-03-12T17:00:54.464Z,3.50
2023-03-12T17:03:28.510Z,3.00
2023-03-12T17:05:55.671Z,3.00
2023-03-12T17:08:22.489Z,2.95
2023-03-12T17:10:49.740Z,1.95
2023-03-12T17:13:23.200Z,1.98
2023-03-12T17:15:50.907Z,2.50
2023-03-12T17:18:19.112Z,3.25
2023-03-12T17:20:47.802Z,10.32
2023-03-12T17:23:15.557Z,6.78
2023-03-12T17:25:44.258Z,6.10
2023-03-12T17:28:11.889Z,3.97
2023-03-12T17:30:39.116Z,4.28
2023-03-12T17:33:12.250Z,2.92
2023-03-12T17:35:40.176Z,3.38
2023-03-12T17:38:07.221Z,6.35
2023-03-12T17:40:36.114Z,5.80
2023-03-12T17:43:02.910Z,5.20
2023-03-12T17:45:30.043Z,3.92
2023-03-12T17:47:56.882Z,4.28
2023-03-12T17:50:23.996Z,3.97
2023-03-12T17:52:51.465Z,3.30
2023-03-12T17:55:18.652Z,3.35
2023-03-12T17:57:45.444Z,4.30
2023-03-12T18:00:13.344Z,3.65
2023-03-12T18:02:41.809Z,3.63
2023-03-12T18:05:11.249Z,3.83
2023-03-12T18:07:38.632Z,4.60
2023-03-12T18:10:08.738Z,3.40
2023-03-12T18:12:38.041Z,3.85
2023-03-12T18:15:06.604Z,4.20
2023-03-12T18:17:33.553Z,3.73
2023-03-12T18:20:01.174Z,3.53
2023-03-12T18:22:27.943Z,3.08
2023-03-12T18:24:55.039Z,3.20
2023-03-12T18:27:21.780Z,2.72
2023-03-12T18:29:48.888Z,2.10
2023-03-12T18:32:15.747Z,2.17
2023-03-12T18:34:42.855Z,1.92
2023-03-12T18:37:09.714Z,1.60
2023-03-12T18:39:36.778Z,1.80
2023-03-12T18:42:03.751Z,2.13
2023-03-12T18:44:31.346Z,1.90
2023-03-12T18:46:58.238Z,2.03
2023-03-12T18:49:25.499Z,2.22
2023-03-12T18:51:56.008Z,2.60
2023-03-12T18:54:24.849Z,2.33
2023-03-12T18:56:51.741Z,1.70
2023-03-12T18:59:18.945Z,2.00
2023-03-12T19:01:45.818Z,2.13
2023-03-12T19:04:17.634Z,2.60
2023-03-12T19:06:51.343Z,2.20
2023-03-12T19:09:19.187Z,2.25
2023-03-12T19:11:49.120Z,1.70
2023-03-12T19:14:16.405Z,1.67
2023-03-12T19:16:43.606Z,1.40
2023-03-12T19:19:10.817Z,1.20
2023-03-12T19:21:37.576Z,1.33
2023-03-12T19:24:05.012Z,1.52
2023-03-12T19:26:31.919Z,1.50
2023-03-12T19:28:59.128Z,1.40
2023-03-12T19:31:26.230Z,1.60
2023-03-12T19:33:53.401Z,1.67
2023-03-12T19:36:20.237Z,2.28
2023-03-12T19:38:47.395Z,2.20
2023-03-12T19:41:14.266Z,3.40
2023-03-12T19:43:43.115Z,3.30
2023-03-12T19:46:09.983Z,3.72
2023-03-12T19:48:37.177Z,4.45
2023-03-12T19:51:09.526Z,5.38
2023-03-12T19:53:37.132Z,4.10
2023-03-12T19:56:04.398Z,3.23
2023-03-12T19:58:31.493Z,3.20
2023-03-12T20:00:59.965Z,3.50
2023-03-12T20:03:28.324Z,3.40
2023-03-12T20:05:56.340Z,3.30
2023-03-12T20:08:26.209Z,2.83
2023-03-12T20:10:52.995Z,2.53
2023-03-12T20:13:20.446Z,2.30
2023-03-12T20:15:48.623Z,2.10
2023-03-12T20:18:16.174Z,2.30
2023-03-12T20:20:43.235Z,2.47
2023-03-12T20:23:10.405Z,2.10
2023-03-12T20:25:43.262Z,2.50
2023-03-12T20:28:13.265Z,2.58
2023-03-12T20:30:43.037Z,2.30
2023-03-12T20:33:11.732Z,2.90
2023-03-12T20:35:38.716Z,3.90
2023-03-12T20:38:05.930Z,3.67
2023-03-12T20:40:32.750Z,5.00
2023-03-12T20:43:02.547Z,5.22
2023-03-12T20:45:29.516Z,4.50
2023-03-12T20:47:57.927Z,6.35
2023-03-12T20:50:25.763Z,5.90
2023-03-12T20:52:53.043Z,7.50
2023-03-12T20:55:19.816Z,11.02
2023-03-12T20:57:46.969Z,8.50
2023-03-12T21:00:13.964Z,7.15
2023-03-12T21:02:41.180Z,6.60
2023-03-12T21:05:10.397Z,6.40
2023-03-12T21:07:37.711Z,6.30
2023-03-12T21:10:05.634Z,5.43
2023-03-12T21:12:32.764Z,5.28
2023-03-12T21:15:06.240Z,5.15
2023-03-12T21:17:34.588Z,4.45
2023-03-12T21:20:02.005Z,3.90
2023-03-12T21:22:31.127Z,3.27
2023-03-12T21:24:58.216Z,3.70
2023-03-12T21:27:25.399Z,3.95
2023-03-12T21:29:53.489Z,4.20
2023-03-12T21:32:22.145Z,3.50
2023-03-12T21:34:49.679Z,3.63
2023-03-12T21:37:17.111Z,3.78
2023-03-12T21:39:43.861Z,4.60
2023-03-12T21:42:11.299Z,3.53
2023-03-12T21:44:38.588Z,3.80
2023-03-12T21:47:06.116Z,3.60
2023-03-12T21:49:34.856Z,3.13
2023-03-12T21:52:03.454Z,3.00
2023-03-12T21:54:32.823Z,2.70
2023-03-12T21:57:03.550Z,2.60
2023-03-12T21:59:30.768Z,2.90
2023-03-12T22:01:58.380Z,2.70
2023-03-12T22:04:25.681Z,3.80
2023-03-12T22:06:52.878Z,4.45
2023-03-12T22:09:19.658Z,3.97
2023-03-12T22:11:46.869Z,4.00
2023-03-12T22:14:14.176Z,3.55
2023-03-12T22:16:41.400Z,3.42
2023-03-12T22:19:09.247Z,2.83
2023-03-12T22:21:36.441Z,4.28
2023-03-12T22:24:03.566Z,3.87
2023-03-12T22:26:30.973Z,5.05
2023-03-12T22:28:58.469Z,6.25
2023-03-12T22:31:28.127Z,6.00
2023-03-12T22:33:55.796Z,9.43
2023-03-12T22:36:23.529Z,9.70
2023-03-12T22:38:50.524Z,8.50
2023-03-12T22:41:25.806Z,11.73
2023-03-12T22:43:55.271Z,12.25
2023-03-12T22:46:25.020Z,8.73
2023-03-12T22:48:54.628Z,11.27
2023-03-12T22:51:22.402Z,11.73
2023-03-12T22:53:49.375Z,13.00
2023-03-12T22:56:16.736Z,9.77
2023-03-12T22:58:43.578Z,8.90
2023-03-12T23:01:14.251Z,5.70
2023-03-12T23:03:42.863Z,4.40
2023-03-12T23:06:12.690Z,4.25
2023-03-12T23:08:39.858Z,3.53
2023-03-12T23:11:08.897Z,3.78
2023-03-12T23:13:38.107Z,3.30
2023-03-12T23:16:08.305Z,4.00
2023-03-12T23:18:36.001Z,4.32
2023-03-12T23:21:06.131Z,3.45
2023-03-12T23:23:33.815Z,3.05
2023-03-12T23:26:03.049Z,2.70
2023-03-12T23:28:31.005Z,3.17
2023-03-12T23:31:02.322Z,2.88
2023-03-12T23:33:30.838Z,2.33
2023-03-12T23:36:00.716Z,2.30
2023-03-12T23:38:29.473Z,2.50
2023-03-12T23:41:07.668Z,2.03
2023-03-12T23:43:34.581Z,2.30
2023-03-12T23:46:05.873Z,1.70
2023-03-12T23:48:34.739Z,2.05
2023-03-12T23:51:07.196Z,1.87
2023-03-12T23:53:34.831Z,1.90
2023-03-12T23:56:04.035Z,2.30
2023-03-12T23:58:30.839Z,1.60
